sensor_id;sensor_type;location;lat;lon;timestamp;temperature;humidity
5196;DHT22;2617;51.006;12.436;2024-03-02T00:00:55;5.90;99.90
5196;DHT22;2617;51.006;12.436;2024-03-02T00:05:58;5.90;99.90
5196;DHT22;2617;51.006;12.436;2024-03-02T00:11:00;5.90;99.90
5196;DHT22;2617;51.006;12.436;2024-03-02T00:16:03;6.00;99.90
5196;DHT22;2617;51.006;12.436;2024-03-02T00:21:06;6.00;99.90
5196;DHT22;2617;51.006;12.436;2024-03-02T00:26:11;6.00;99.90
5196;DHT22;2617;51.006;12.436;2024-03-02T00:31:13;6.00;99.90
5196;DHT22;2617;51.006;12.436;2024-03-02T00:36:16;6.10;99.90
5196;DHT22;2617;51.006;12.436;2024-03-02T00:41:21;6.10;99.90
5196;DHT22;2617;51.006;12.436;2024-03-02T00:46:24;6.20;99.90
5196;DHT22;2617;51.006;12.436;2024-03-02T00:51:27;6.20;99.90
5196;DHT22;2617;51.006;12.436;2024-03-02T00:56:29;6.20;99.90
5196;DHT22;2617;51.006;12.436;2024-03-02T01:01:31;6.30;99.90
5196;DHT22;2617;51.006;12.436;2024-03-02T01:06:34;6.30;99.90
5196;DHT22;2617;51.006;12.436;2024-03-02T01:11:38;6.30;99.90
5196;DHT22;2617;51.006;12.436;2024-03-02T01:16:40;6.30;99.90
5196;DHT22;2617;51.006;12.436;2024-03-02T01:21:43;6.30;99.90
5196;DHT22;2617;51.006;12.436;2024-03-02T01:26:45;6.30;99.90
5196;DHT22;2617;51.006;12.436;2024-03-02T01:31:48;6.30;99.90
5196;DHT22;2617;51.006;12.436;2024-03-02T01:36:50;6.30;99.90
5196;DHT22;2617;51.006;12.436;2024-03-02T01:41:53;6.30;99.90
5196;DHT22;2617;51.006;12.436;2024-03-02T01:46:55;6.30;99.90
5196;DHT22;2617;51.006;12.436;2024-03-02T01:51:57;6.30;99.90
5196;DHT22;2617;51.006;12.436;2024-03-02T01:57:01;6.30;99.90
5196;DHT22;2617;51.006;12.436;2024-03-02T02:02:03;6.20;99.90
5196;DHT22;2617;51.006;12.436;2024-03-02T02:07:06;6.30;99.90
5196;DHT22;2617;51.006;12.436;2024-03-02T02:12:09;6.30;99.90
5196;DHT22;2617;51.006;12.436;2024-03-02T02:17:12;6.30;99.90
5196;DHT22;2617;51.006;12.436;2024-03-02T02:22:16;6.40;99.90
5196;DHT22;2617;51.006;12.436;2024-03-02T02:27:18;6.30;99.90
5196;DHT22;2617;51.006;12.436;2024-03-02T02:32:20;6.40;99.90
5196;DHT22;2617;51.006;12.436;2024-03-02T02:37:23;6.40;99.90
5196;DHT22;2617;51.006;12.436;2024-03-02T02:42:25;6.40;99.90
5196;DHT22;2617;51.006;12.436;2024-03-02T02:47:28;6.40;99.90
5196;DHT22;2617;51.006;12.436;2024-03-02T02:52:32;6.40;99.90
5196;DHT22;2617;51.006;12.436;2024-03-02T02:57:34;6.40;99.90
5196;DHT22;2617;51.006;12.436;2024-03-02T03:02:38;6.40;99.90
5196;DHT22;2617;51.006;12.436;2024-03-02T03:07:41;6.30;99.90
5196;DHT22;2617;51.006;12.436;2024-03-02T03:12:45;6.30;99.90
5196;DHT22;2617;51.006;12.436;2024-03-02T03:17:47;6.30;99.90
5196;DHT22;2617;51.006;12.436;2024-03-02T03:22:50;6.30;99.90
5196;DHT22;2617;51.006;12.436;2024-03-02T03:27:52;6.30;99.90
5196;DHT22;2617;51.006;12.436;2024-03-02T03:32:55;6.30;99.90
5196;DHT22;2617;51.006;12.436;2024-03-02T03:37:57;6.30;99.90
5196;DHT22;2617;51.006;12.436;2024-03-02T03:43:00;6.30;99.90
5196;DHT22;2617;51.006;12.436;2024-03-02T03:48:03;6.30;99.90
5196;DHT22;2617;51.006;12.436;2024-03-02T03:53:05;6.30;99.90
5196;DHT22;2617;51.006;12.436;2024-03-02T03:58:09;6.30;99.90
5196;DHT22;2617;51.006;12.436;2024-03-02T04:03:11;6.30;99.90
5196;DHT22;2617;51.006;12.436;2024-03-02T04:08:14;6.30;99.90
5196;DHT22;2617;51.006;12.436;2024-03-02T04:13:16;6.30;99.90
5196;DHT22;2617;51.006;12.436;2024-03-02T04:18:19;6.30;99.90
5196;DHT22;2617;51.006;12.436;2024-03-02T04:23:22;6.30;99.90
5196;DHT22;2617;51.006;12.436;2024-03-02T04:28:24;6.30;99.90
5196;DHT22;2617;51.006;12.436;2024-03-02T04:33:27;6.30;99.90
5196;DHT22;2617;51.006;12.436;2024-03-02T04:38:29;6.30;99.90
5196;DHT22;2617;51.006;12.436;2024-03-02T04:43:32;6.30;99.90
5196;DHT22;2617;51.006;12.436;2024-03-02T04:48:34;6.30;99.90
5196;DHT22;2617;51.006;12.436;2024-03-02T04:53:36;6.30;99.90
5196;DHT22;2617;51.006;12.436;2024-03-02T04:58:40;6.30;99.90
5196;DHT22;2617;51.006;12.436;2024-03-02T05:03:42;6.30;99.90
5196;DHT22;2617;51.006;12.436;2024-03-02T05:08:45;6.20;99.90
5196;DHT22;2617;51.006;12.436;2024-03-02T05:13:47;6.20;99.90
5196;DHT22;2617;51.006;12.436;2024-03-02T05:18:49;6.20;99.90
5196;DHT22;2617;51.006;12.436;2024-03-02T05:23:52;6.10;99.90
5196;DHT22;2617;51.006;12.436;2024-03-02T05:28:55;6.10;99.90
5196;DHT22;2617;51.006;12.436;2024-03-02T05:33:57;6.10;99.90
5196;DHT22;2617;51.006;12.436;2024-03-02T05:39:00;6.10;99.90
5196;DHT22;2617;51.006;12.436;2024-03-02T05:44:04;6.20;99.90
5196;DHT22;2617;51.006;12.436;2024-03-02T05:49:06;6.20;99.90
5196;DHT22;2617;51.006;12.436;2024-03-02T05:54:08;6.20;99.90
5196;DHT22;2617;51.006;12.436;2024-03-02T05:59:11;6.20;99.90
5196;DHT22;2617;51.006;12.436;2024-03-02T06:04:14;6.20;99.90
5196;DHT22;2617;51.006;12.436;2024-03-02T06:09:16;6.20;99.90
5196;DHT22;2617;51.006;12.436;2024-03-02T06:14:19;6.30;99.90
5196;DHT22;2617;51.006;12.436;2024-03-02T06:19:21;6.30;99.90
5196;DHT22;2617;51.006;12.436;2024-03-02T06:24:24;6.40;99.90
5196;DHT22;2617;51.006;12.436;2024-03-02T06:29:26;6.40;99.90
5196;DHT22;2617;51.006;12.436;2024-03-02T06:34:28;6.50;99.90
5196;DHT22;2617;51.006;12.436;2024-03-02T06:39:31;6.60;99.90
5196;DHT22;2617;51.006;12.436;2024-03-02T06:44:34;6.60;99.90
5196;DHT22;2617;51.006;12.436;2024-03-02T06:49:36;6.70;99.90
5196;DHT22;2617;51.006;12.436;2024-03-02T06:54:39;6.80;99.90
5196;DHT22;2617;51.006;12.436;2024-03-02T06:59:42;6.90;99.90
5196;DHT22;2617;51.006;12.436;2024-03-02T07:04:44;7.10;99.90
5196;DHT22;2617;51.006;12.436;2024-03-02T07:09:47;7.20;99.90
5196;DHT22;2617;51.006;12.436;2024-03-02T07:14:49;7.20;99.90
5196;DHT22;2617;51.006;12.436;2024-03-02T07:19:57;7.30;99.90
5196;DHT22;2617;51.006;12.436;2024-03-02T07:25:00;7.40;99.90
5196;DHT22;2617;51.006;12.436;2024-03-02T07:30:03;7.50;99.90
5196;DHT22;2617;51.006;12.436;2024-03-02T07:35:06;7.50;99.90
5196;DHT22;2617;51.006;12.436;2024-03-02T07:40:10;7.60;99.90
5196;DHT22;2617;51.006;12.436;2024-03-02T07:45:13;7.60;99.90
5196;DHT22;2617;51.006;12.436;2024-03-02T07:50:16;7.70;99.90
5196;DHT22;2617;51.006;12.436;2024-03-02T07:55:18;7.80;99.90
5196;DHT22;2617;51.006;12.436;2024-03-02T08:00:22;8.00;99.90
5196;DHT22;2617;51.006;12.436;2024-03-02T08:05:24;8.20;99.90
5196;DHT22;2617;51.006;12.436;2024-03-02T08:10:27;8.40;99.90
5196;DHT22;2617;51.006;12.436;2024-03-02T08:15:29;8.50;99.90
5196;DHT22;2617;51.006;12.436;2024-03-02T08:20:32;8.80;99.90
5196;DHT22;2617;51.006;12.436;2024-03-02T08:25:34;9.10;99.90
5196;DHT22;2617;51.006;12.436;2024-03-02T08:30:37;9.40;99.90
5196;DHT22;2617;51.006;12.436;2024-03-02T08:35:39;9.60;99.90
5196;DHT22;2617;51.006;12.436;2024-03-02T08:40:42;9.70;99.90
5196;DHT22;2617;51.006;12.436;2024-03-02T08:45:45;9.90;99.90
5196;DHT22;2617;51.006;12.436;2024-03-02T08:50:47;9.90;99.90
5196;DHT22;2617;51.006;12.436;2024-03-02T08:55:50;9.90;99.90
5196;DHT22;2617;51.006;12.436;2024-03-02T09:00:52;9.80;99.90
5196;DHT22;2617;51.006;12.436;2024-03-02T09:05:55;9.90;99.90
5196;DHT22;2617;51.006;12.436;2024-03-02T09:10:57;9.90;99.90
5196;DHT22;2617;51.006;12.436;2024-03-02T09:16:00;10.00;99.90
5196;DHT22;2617;51.006;12.436;2024-03-02T09:21:03;10.10;99.90
5196;DHT22;2617;51.006;12.436;2024-03-02T09:26:05;10.20;99.90
5196;DHT22;2617;51.006;12.436;2024-03-02T09:31:09;10.50;99.90
5196;DHT22;2617;51.006;12.436;2024-03-02T09:36:17;10.50;99.90
5196;DHT22;2617;51.006;12.436;2024-03-02T09:41:20;10.60;99.90
5196;DHT22;2617;51.006;12.436;2024-03-02T09:46:22;10.70;99.90
5196;DHT22;2617;51.006;12.436;2024-03-02T09:51:25;10.70;99.90
5196;DHT22;2617;51.006;12.436;2024-03-02T09:56:27;10.60;99.90
5196;DHT22;2617;51.006;12.436;2024-03-02T10:01:30;10.70;99.90
5196;DHT22;2617;51.006;12.436;2024-03-02T10:06:32;10.80;99.90
5196;DHT22;2617;51.006;12.436;2024-03-02T10:11:35;11.20;99.90
5196;DHT22;2617;51.006;12.436;2024-03-02T10:16:39;11.20;99.90
5196;DHT22;2617;51.006;12.436;2024-03-02T10:21:40;11.50;99.90
5196;DHT22;2617;51.006;12.436;2024-03-02T10:26:43;11.70;99.90
5196;DHT22;2617;51.006;12.436;2024-03-02T10:31:46;11.80;99.90
5196;DHT22;2617;51.006;12.436;2024-03-02T10:36:49;12.00;99.90
5196;DHT22;2617;51.006;12.436;2024-03-02T10:41:51;12.30;99.90
5196;DHT22;2617;51.006;12.436;2024-03-02T10:46:54;12.80;99.90
5196;DHT22;2617;51.006;12.436;2024-03-02T10:51:57;12.70;99.90
5196;DHT22;2617;51.006;12.436;2024-03-02T10:56:59;12.90;99.90
5196;DHT22;2617;51.006;12.436;2024-03-02T11:02:03;12.90;99.90
5196;DHT22;2617;51.006;12.436;2024-03-02T11:07:07;12.90;99.90
5196;DHT22;2617;51.006;12.436;2024-03-02T11:12:13;13.00;99.90
5196;DHT22;2617;51.006;12.436;2024-03-02T11:17:16;13.10;99.90
5196;DHT22;2617;51.006;12.436;2024-03-02T11:22:19;13.10;99.90
5196;DHT22;2617;51.006;12.436;2024-03-02T11:32:42;13.60;99.90
5196;DHT22;2617;51.006;12.436;2024-03-02T11:37:44;13.90;99.90
5196;DHT22;2617;51.006;12.436;2024-03-02T11:42:47;14.10;99.90
5196;DHT22;2617;51.006;12.436;2024-03-02T11:47:51;14.10;99.90
5196;DHT22;2617;51.006;12.436;2024-03-02T11:52:54;14.10;99.90
5196;DHT22;2617;51.006;12.436;2024-03-02T11:57:57;14.30;99.90
5196;DHT22;2617;51.006;12.436;2024-03-02T12:03:09;14.30;99.90
5196;DHT22;2617;51.006;12.436;2024-03-02T12:13:40;14.60;99.90
5196;DHT22;2617;51.006;12.436;2024-03-02T12:18:42;14.70;99.90
5196;DHT22;2617;51.006;12.436;2024-03-02T12:23:46;14.40;99.90
5196;DHT22;2617;51.006;12.436;2024-03-02T12:28:48;14.40;99.90
5196;DHT22;2617;51.006;12.436;2024-03-02T12:33:51;14.30;99.90
5196;DHT22;2617;51.006;12.436;2024-03-02T12:38:53;14.30;99.90
5196;DHT22;2617;51.006;12.436;2024-03-02T12:43:56;14.20;99.90
5196;DHT22;2617;51.006;12.436;2024-03-02T12:49:04;14.80;99.90
5196;DHT22;2617;51.006;12.436;2024-03-02T12:54:02;15.00;99.90
5196;DHT22;2617;51.006;12.436;2024-03-02T12:59:05;15.00;99.90
5196;DHT22;2617;51.006;12.436;2024-03-02T13:04:09;14.80;99.90
5196;DHT22;2617;51.006;12.436;2024-03-02T13:09:10;14.80;99.90
5196;DHT22;2617;51.006;12.436;2024-03-02T13:14:12;14.90;99.90
5196;DHT22;2617;51.006;12.436;2024-03-02T13:19:15;14.80;99.90
5196;DHT22;2617;51.006;12.436;2024-03-02T13:24:19;15.20;99.90
5196;DHT22;2617;51.006;12.436;2024-03-02T13:29:21;15.50;97.60
5196;DHT22;2617;51.006;12.436;2024-03-02T13:34:24;15.70;96.00
5196;DHT22;2617;51.006;12.436;2024-03-02T13:39:27;16.00;95.10
5196;DHT22;2617;51.006;12.436;2024-03-02T13:44:30;16.00;95.00
5196;DHT22;2617;51.006;12.436;2024-03-02T13:49:32;16.10;95.00
5196;DHT22;2617;51.006;12.436;2024-03-02T13:54:37;16.20;94.40
5196;DHT22;2617;51.006;12.436;2024-03-02T13:59:41;16.00;94.40
5196;DHT22;2617;51.006;12.436;2024-03-02T14:04:44;15.40;95.50
5196;DHT22;2617;51.006;12.436;2024-03-02T14:09:46;15.40;95.50
5196;DHT22;2617;51.006;12.436;2024-03-02T14:14:51;15.20;95.80
5196;DHT22;2617;51.006;12.436;2024-03-02T14:19:53;15.20;96.50
5196;DHT22;2617;51.006;12.436;2024-03-02T14:24:56;14.80;97.90
5196;DHT22;2617;51.006;12.436;2024-03-02T14:29:59;14.80;96.60
5196;DHT22;2617;51.006;12.436;2024-03-02T14:35:02;14.80;96.60
5196;DHT22;2617;51.006;12.436;2024-03-02T14:40:05;14.60;97.10
5196;DHT22;2617;51.006;12.436;2024-03-02T14:45:09;14.60;97.50
5196;DHT22;2617;51.006;12.436;2024-03-02T14:50:12;14.20;98.80
5196;DHT22;2617;51.006;12.436;2024-03-02T14:55:15;14.20;98.40
5196;DHT22;2617;51.006;12.436;2024-03-02T15:00:17;14.00;99.10
5196;DHT22;2617;51.006;12.436;2024-03-02T15:05:20;13.80;99.90
5196;DHT22;2617;51.006;12.436;2024-03-02T15:10:23;13.60;99.90
5196;DHT22;2617;51.006;12.436;2024-03-02T15:15:25;13.40;99.90
5196;DHT22;2617;51.006;12.436;2024-03-02T15:20:28;13.40;99.90
5196;DHT22;2617;51.006;12.436;2024-03-02T15:25:31;13.30;99.90
5196;DHT22;2617;51.006;12.436;2024-03-02T15:30:33;13.20;99.90
5196;DHT22;2617;51.006;12.436;2024-03-02T15:35:36;13.20;99.90
5196;DHT22;2617;51.006;12.436;2024-03-02T15:40:38;13.10;99.90
5196;DHT22;2617;51.006;12.436;2024-03-02T15:45:41;13.00;99.90
5196;DHT22;2617;51.006;12.436;2024-03-02T15:50:44;12.90;99.90
5196;DHT22;2617;51.006;12.436;2024-03-02T15:55:46;13.00;99.90
5196;DHT22;2617;51.006;12.436;2024-03-02T16:00:49;12.90;99.90
5196;DHT22;2617;51.006;12.436;2024-03-02T16:05:53;12.80;99.90
5196;DHT22;2617;51.006;12.436;2024-03-02T16:10:55;12.70;99.90
5196;DHT22;2617;51.006;12.436;2024-03-02T16:15:58;12.60;99.90
5196;DHT22;2617;51.006;12.436;2024-03-02T16:21:00;12.50;99.90
5196;DHT22;2617;51.006;12.436;2024-03-02T16:26:03;12.20;99.90
5196;DHT22;2617;51.006;12.436;2024-03-02T16:31:06;12.10;99.90
5196;DHT22;2617;51.006;12.436;2024-03-02T16:36:09;11.80;99.90
5196;DHT22;2617;51.006;12.436;2024-03-02T16:41:14;11.60;99.90
5196;DHT22;2617;51.006;12.436;2024-03-02T16:46:17;11.60;99.90
5196;DHT22;2617;51.006;12.436;2024-03-02T16:51:20;11.20;99.90
5196;DHT22;2617;51.006;12.436;2024-03-02T16:56:23;11.20;99.90
5196;DHT22;2617;51.006;12.436;2024-03-02T17:01:25;11.00;99.90
5196;DHT22;2617;51.006;12.436;2024-03-02T17:06:29;10.60;99.90
5196;DHT22;2617;51.006;12.436;2024-03-02T17:11:32;10.60;99.90
5196;DHT22;2617;51.006;12.436;2024-03-02T17:16:34;10.40;99.90
5196;DHT22;2617;51.006;12.436;2024-03-02T17:21:37;10.30;99.90
5196;DHT22;2617;51.006;12.436;2024-03-02T17:26:39;10.10;99.90
5196;DHT22;2617;51.006;12.436;2024-03-02T17:31:42;10.00;99.90
5196;DHT22;2617;51.006;12.436;2024-03-02T17:36:44;9.90;99.90
5196;DHT22;2617;51.006;12.436;2024-03-02T17:41:47;9.80;99.90
5196;DHT22;2617;51.006;12.436;2024-03-02T17:46:49;9.80;99.90
5196;DHT22;2617;51.006;12.436;2024-03-02T17:51:52;9.70;99.90
5196;DHT22;2617;51.006;12.436;2024-03-02T17:56:55;9.60;99.90
5196;DHT22;2617;51.006;12.436;2024-03-02T18:01:57;9.50;99.90
5196;DHT22;2617;51.006;12.436;2024-03-02T18:07:00;9.50;99.90
5196;DHT22;2617;51.006;12.436;2024-03-02T18:12:02;9.50;99.90
5196;DHT22;2617;51.006;12.436;2024-03-02T18:17:05;9.40;99.90
5196;DHT22;2617;51.006;12.436;2024-03-02T18:22:07;9.30;99.90
5196;DHT22;2617;51.006;12.436;2024-03-02T18:27:11;9.10;99.90
5196;DHT22;2617;51.006;12.436;2024-03-02T18:32:14;9.00;99.90
5196;DHT22;2617;51.006;12.436;2024-03-02T18:37:16;9.00;99.90
5196;DHT22;2617;51.006;12.436;2024-03-02T18:42:19;8.90;99.90
5196;DHT22;2617;51.006;12.436;2024-03-02T18:47:21;8.80;99.90
5196;DHT22;2617;51.006;12.436;2024-03-02T18:52:25;8.80;99.90
5196;DHT22;2617;51.006;12.436;2024-03-02T18:57:27;8.70;99.90
5196;DHT22;2617;51.006;12.436;2024-03-02T19:02:30;8.60;99.90
5196;DHT22;2617;51.006;12.436;2024-03-02T19:07:32;8.50;99.90
5196;DHT22;2617;51.006;12.436;2024-03-02T19:12:34;8.40;99.90
5196;DHT22;2617;51.006;12.436;2024-03-02T19:17:37;8.30;99.90
5196;DHT22;2617;51.006;12.436;2024-03-02T19:22:40;8.20;99.90
5196;DHT22;2617;51.006;12.436;2024-03-02T19:27:43;8.20;99.90
5196;DHT22;2617;51.006;12.436;2024-03-02T19:32:45;8.20;99.90
5196;DHT22;2617;51.006;12.436;2024-03-02T19:37:47;8.10;99.90
5196;DHT22;2617;51.006;12.436;2024-03-02T19:42:50;8.00;99.90
5196;DHT22;2617;51.006;12.436;2024-03-02T19:47:52;7.90;99.90
5196;DHT22;2617;51.006;12.436;2024-03-02T19:52:57;7.80;99.90
5196;DHT22;2617;51.006;12.436;2024-03-02T19:57:59;7.80;99.90
5196;DHT22;2617;51.006;12.436;2024-03-02T20:03:02;7.70;99.90
5196;DHT22;2617;51.006;12.436;2024-03-02T20:08:05;7.70;99.90
5196;DHT22;2617;51.006;12.436;2024-03-02T20:13:08;7.40;99.90
5196;DHT22;2617;51.006;12.436;2024-03-02T20:18:11;7.40;99.90
5196;DHT22;2617;51.006;12.436;2024-03-02T20:23:14;7.30;99.90
5196;DHT22;2617;51.006;12.436;2024-03-02T20:28:16;7.30;99.90
5196;DHT22;2617;51.006;12.436;2024-03-02T20:33:19;7.20;99.90
5196;DHT22;2617;51.006;12.436;2024-03-02T20:38:21;7.10;99.90
5196;DHT22;2617;51.006;12.436;2024-03-02T20:43:24;7.10;99.90
5196;DHT22;2617;51.006;12.436;2024-03-02T20:48:27;7.00;99.90
5196;DHT22;2617;51.006;12.436;2024-03-02T20:53:30;6.90;99.90
5196;DHT22;2617;51.006;12.436;2024-03-02T20:58:32;6.90;99.90
5196;DHT22;2617;51.006;12.436;2024-03-02T21:03:35;6.90;99.90
5196;DHT22;2617;51.006;12.436;2024-03-02T21:08:38;6.80;99.90
5196;DHT22;2617;51.006;12.436;2024-03-02T21:13:41;6.80;99.90
5196;DHT22;2617;51.006;12.436;2024-03-02T21:18:44;6.80;99.90
5196;DHT22;2617;51.006;12.436;2024-03-02T21:23:46;6.70;99.90
5196;DHT22;2617;51.006;12.436;2024-03-02T21:28:49;6.70;99.90
5196;DHT22;2617;51.006;12.436;2024-03-02T21:33:52;6.50;99.90
5196;DHT22;2617;51.006;12.436;2024-03-02T21:38:54;6.50;99.90
5196;DHT22;2617;51.006;12.436;2024-03-02T21:43:58;6.40;99.90
5196;DHT22;2617;51.006;12.436;2024-03-02T21:49:00;6.30;99.90
5196;DHT22;2617;51.006;12.436;2024-03-02T21:54:03;6.20;99.90
5196;DHT22;2617;51.006;12.436;2024-03-02T21:59:06;6.00;99.90
5196;DHT22;2617;51.006;12.436;2024-03-02T22:04:09;5.90;99.90
5196;DHT22;2617;51.006;12.436;2024-03-02T22:09:12;5.90;99.90
5196;DHT22;2617;51.006;12.436;2024-03-02T22:14:17;5.80;99.90
5196;DHT22;2617;51.006;12.436;2024-03-02T22:19:20;5.80;99.90
5196;DHT22;2617;51.006;12.436;2024-03-02T22:24:22;5.80;99.90
5196;DHT22;2617;51.006;12.436;2024-03-02T22:29:25;5.70;99.90
5196;DHT22;2617;51.006;12.436;2024-03-02T22:34:29;5.60;99.90
5196;DHT22;2617;51.006;12.436;2024-03-02T22:39:31;5.60;99.90
5196;DHT22;2617;51.006;12.436;2024-03-02T22:44:35;5.50;99.90
5196;DHT22;2617;51.006;12.436;2024-03-02T22:49:38;5.50;99.90
5196;DHT22;2617;51.006;12.436;2024-03-02T22:54:40;5.40;99.90
5196;DHT22;2617;51.006;12.436;2024-03-02T22:59:44;5.40;99.90
5196;DHT22;2617;51.006;12.436;2024-03-02T23:04:53;5.30;99.90
5196;DHT22;2617;51.006;12.436;2024-03-02T23:09:56;5.20;99.90
5196;DHT22;2617;51.006;12.436;2024-03-02T23:14:59;5.10;99.90
5196;DHT22;2617;51.006;12.436;2024-03-02T23:20:01;5.10;99.90
5196;DHT22;2617;51.006;12.436;2024-03-02T23:25:04;5.00;99.90
5196;DHT22;2617;51.006;12.436;2024-03-02T23:30:08;4.90;99.90
5196;DHT22;2617;51.006;12.436;2024-03-02T23:35:10;4.90;99.90
5196;DHT22;2617;51.006;12.436;2024-03-02T23:40:14;4.90;99.90
5196;DHT22;2617;51.006;12.436;2024-03-02T23:45:19;4.80;99.90
5196;DHT22;2617;51.006;12.436;2024-03-02T23:50:21;4.80;99.90
5196;DHT22;2617;51.006;12.436;2024-03-02T23:55:24;4.70;99.90
